createdAt,value
2023-02-17T00:01:33.206Z,101470.81
2023-02-17T00:04:00.357Z,101456.25
2023-02-17T00:06:30.609Z,101470.59
2023-02-17T00:08:58.179Z,101466.13
2023-02-17T00:11:25.367Z,101461.38
2023-02-17T00:13:55.244Z,101462.63
2023-02-17T00:16:25.471Z,101452.97
2023-02-17T00:18:56.007Z,101453.84
2023-02-17T00:21:25.653Z,101443.63
2023-02-17T00:23:53.509Z,101458.25
2023-02-17T00:26:21.548Z,101445.59
2023-02-17T00:28:49.623Z,101436.19
2023-02-17T00:31:22.680Z,101436.41
2023-02-17T00:33:55.498Z,101433.75
2023-02-17T00:36:22.508Z,101427.63
2023-02-17T00:38:49.661Z,101426.41
2023-02-17T00:41:18.195Z,101418.44
2023-02-17T00:43:46.874Z,101423.19
2023-02-17T00:46:17.908Z,101416.19
2023-02-17T00:48:47.731Z,101413.53
2023-02-17T00:51:15.995Z,101419.91
2023-02-17T00:53:43.445Z,101419.28
2023-02-17T00:56:10.847Z,101409.03
2023-02-17T00:58:38.638Z,101415.19
2023-02-17T01:01:05.797Z,101397.31
2023-02-17T01:03:32.705Z,101392.81
2023-02-17T01:06:00.051Z,101393.03
2023-02-17T01:08:26.977Z,101391.41
2023-02-17T01:10:54.131Z,101387.91
2023-02-17T01:13:21.473Z,101374.34
2023-02-17T01:15:52.299Z,101378.44
2023-02-17T01:18:23.683Z,101380.06
2023-02-17T01:20:52.040Z,101375.56
2023-02-17T01:23:19.517Z,101365.91
2023-02-17T01:25:47.760Z,101370.59
2023-02-17T01:28:20.141Z,101366.06
2023-02-17T01:30:48.324Z,101345.94
2023-02-17T01:33:15.716Z,101353.53
2023-02-17T01:35:42.770Z,101348.41
2023-02-17T01:38:09.727Z,101340.97
2023-02-17T01:40:36.629Z,101340.97
2023-02-17T01:43:03.673Z,101338.31
2023-02-17T01:45:37.838Z,101331.94
2023-02-17T01:48:34.072Z,101337.88
2023-02-17T01:51:08.366Z,101338.91
2023-02-17T01:53:45.550Z,101336.25
2023-02-17T01:56:14.147Z,101333.19
2023-02-17T01:58:47.197Z,101324.94
2023-02-17T02:01:14.310Z,101331.94
2023-02-17T02:03:42.366Z,101319.41
2023-02-17T02:06:16.923Z,101325.13
2023-02-17T02:09:07.549Z,101325.72
2023-02-17T02:11:35.609Z,101322.88
2023-02-17T02:14:06.673Z,101315.09
2023-02-17T02:16:47.490Z,101302.38
2023-02-17T02:19:39.546Z,101313.50
2023-02-17T02:23:07.563Z,101304.06
2023-02-17T02:26:01.740Z,101293.66
2023-02-17T02:28:47.691Z,101273.75
2023-02-17T02:31:45.195Z,101268.84
2023-02-17T02:34:22.578Z,101265.59
2023-02-17T02:37:23.881Z,101259.66
2023-02-17T02:39:54.159Z,101250.44
2023-02-17T02:42:24.394Z,101243.47
2023-02-17T02:44:51.433Z,101244.50
2023-02-17T02:47:46.599Z,101241.56
2023-02-17T02:50:34.168Z,101252.28
2023-02-17T02:53:22.590Z,101238.34
2023-02-17T02:56:05.534Z,101232.41
2023-02-17T02:59:10.174Z,101232.41
2023-02-17T03:02:08.455Z,101225.84
2023-02-17T03:04:44.769Z,101222.19
2023-02-17T03:07:25.062Z,101223.66
2023-02-17T03:09:58.153Z,101227.16
2023-02-17T03:12:27.201Z,101219.56
2023-02-17T03:15:08.373Z,101198.38
2023-02-17T03:17:35.380Z,101203.13
2023-02-17T03:20:05.998Z,101205.38
2023-02-17T03:22:37.285Z,101202.69
2023-02-17T03:25:04.760Z,101192.84
2023-02-17T03:27:31.800Z,101199.00
2023-02-17T03:29:58.860Z,101194.25
2023-02-17T03:32:26.064Z,101192.22
2023-02-17T03:34:52.917Z,101190.16
2023-02-17T03:37:19.793Z,101205.97
2023-02-17T03:39:46.945Z,101201.22
2023-02-17T03:42:13.799Z,101206.78
2023-02-17T03:44:40.753Z,101208.19
2023-02-17T03:47:07.829Z,101201.84
2023-02-17T03:49:35.028Z,101191.59
2023-02-17T03:52:02.265Z,101190.97
2023-02-17T03:54:29.305Z,101185.88
2023-02-17T03:56:56.486Z,101186.03
2023-02-17T03:59:23.427Z,101177.03
2023-02-17T04:01:50.523Z,101187.28
2023-02-17T04:04:17.508Z,101181.72
2023-02-17T04:06:44.605Z,101186.25
2023-02-17T04:09:11.631Z,101180.31
2023-02-17T04:11:38.729Z,101179.06
2023-02-17T04:14:05.764Z,101168.00
2023-02-17T04:16:32.810Z,101155.47
2023-02-17T04:18:59.773Z,101169.19
2023-02-17T04:21:27.055Z,101163.41
2023-02-17T04:23:55.060Z,101168.72
2023-02-17T04:26:21.959Z,101168.75
2023-02-17T04:28:48.982Z,101162.16
2023-02-17T04:31:16.154Z,101156.06
2023-02-17T04:33:43.258Z,101157.69
2023-02-17T04:36:11.388Z,101147.47
2023-02-17T04:38:39.723Z,101149.09
2023-02-17T04:41:07.168Z,101147.88
2023-02-17T04:43:34.416Z,101130.25
2023-02-17T04:46:01.411Z,101149.47
2023-02-17T04:48:28.633Z,101151.31
2023-02-17T04:50:55.699Z,101160.75
2023-02-17T04:53:22.788Z,101167.13
2023-02-17T04:55:51.597Z,101146.59
2023-02-17T04:58:19.971Z,101145.75
2023-02-17T05:00:49.170Z,101126.66
2023-02-17T05:03:17.525Z,101131.16
2023-02-17T05:05:44.748Z,101125.59
2023-02-17T05:08:11.628Z,101121.09
2023-02-17T05:10:38.614Z,101126.84
2023-02-17T05:13:05.459Z,101135.03
2023-02-17T05:15:34.779Z,101131.31
2023-02-17T05:18:02.836Z,101116.34
2023-02-17T05:20:29.745Z,101116.34
2023-02-17T05:22:56.801Z,101112.03
2023-02-17T05:25:23.591Z,101109.97
2023-02-17T05:27:50.495Z,101107.06
2023-02-17T05:30:17.520Z,101104.78
2023-02-17T05:32:44.523Z,101105.22
2023-02-17T05:35:11.930Z,101105.00
2023-02-17T05:37:38.959Z,101102.72
2023-02-17T05:40:07.095Z,101106.56
2023-02-17T05:42:34.164Z,101100.84
2023-02-17T05:45:01.444Z,101101.22
2023-02-17T05:47:28.515Z,101102.06
2023-02-17T05:49:55.472Z,101097.31
2023-02-17T05:52:22.425Z,101102.06
2023-02-17T05:54:49.421Z,101103.69
2023-02-17T05:57:16.501Z,101101.22
2023-02-17T05:59:43.468Z,101101.00
2023-02-17T06:02:10.356Z,101111.47
2023-02-17T06:04:37.509Z,101099.53
2023-02-17T06:07:04.449Z,101101.16
2023-02-17T06:09:31.530Z,101092.72
2023-02-17T06:11:58.469Z,101089.44
2023-02-17T06:14:25.352Z,101088.78
2023-02-17T06:16:53.646Z,101080.78
2023-02-17T06:19:20.557Z,101089.00
2023-02-17T06:21:47.484Z,101072.31
2023-02-17T06:24:14.438Z,101074.41
2023-02-17T06:26:41.358Z,101064.31
2023-02-17T06:29:08.294Z,101058.75
2023-02-17T06:31:35.417Z,101065.94
2023-02-17T06:34:03.823Z,101057.09
2023-02-17T06:36:31.845Z,101070.16
2023-02-17T06:38:58.744Z,101062.38
2023-02-17T06:41:25.683Z,101071.00
2023-02-17T06:43:52.620Z,101061.72
2023-02-17T06:46:19.635Z,101066.25
2023-02-17T06:48:46.700Z,101064.16
2023-02-17T06:51:13.670Z,101061.03
2023-02-17T06:53:40.590Z,101061.41
2023-02-17T06:56:07.853Z,101056.28
2023-02-17T06:58:37.514Z,101058.06
2023-02-17T07:01:05.427Z,101057.25
2023-02-17T07:03:32.713Z,101042.63
2023-02-17T07:06:00.560Z,101060.22
2023-02-17T07:08:27.613Z,101046.03
2023-02-17T07:10:54.716Z,101034.69
2023-02-17T07:13:21.612Z,101036.13
2023-02-17T07:15:48.582Z,101031.13
2023-02-17T07:18:15.464Z,101031.28
2023-02-17T07:20:42.407Z,101042.09
2023-02-17T07:23:09.743Z,101036.66
2023-02-17T07:25:36.884Z,101046.56
2023-02-17T07:28:03.888Z,101034.59
2023-02-17T07:30:30.960Z,101027.16
2023-02-17T07:32:57.933Z,101032.06
2023-02-17T07:35:25.240Z,101034.28
2023-02-17T07:37:52.147Z,101030.69
2023-02-17T07:40:19.460Z,101029.19
2023-02-17T07:42:46.343Z,101029.78
2023-02-17T07:45:13.734Z,101021.47
2023-02-17T07:47:40.683Z,101033.34
2023-02-17T07:50:08.541Z,101024.03
2023-02-17T07:52:35.609Z,101016.97
2023-02-17T07:55:02.549Z,101018.00
2023-02-17T07:57:30.335Z,101005.78
2023-02-17T07:59:57.166Z,101000.81
2023-02-17T08:02:24.059Z,101003.94
2023-02-17T08:04:52.551Z,101004.19
2023-02-17T08:07:19.814Z,100995.47
2023-02-17T08:10:05.233Z,101004.47
2023-02-17T08:12:50.727Z,101007.50
2023-02-17T08:15:17.612Z,101007.84
2023-02-17T08:17:44.713Z,101011.69
2023-02-17T08:20:13.393Z,101005.16
2023-02-17T08:22:40.671Z,101012.03
2023-02-17T08:25:07.865Z,101016.00
2023-02-17T08:27:34.785Z,101007.16
2023-02-17T08:30:01.867Z,101009.38
2023-02-17T08:32:28.795Z,101008.09
2023-02-17T08:34:56.739Z,100985.63
2023-02-17T08:37:23.903Z,100994.69
2023-02-17T08:39:50.957Z,101000.88
2023-02-17T08:42:18.060Z,100983.88
2023-02-17T08:44:45.325Z,100997.72
2023-02-17T08:47:12.181Z,100999.47
2023-02-17T08:49:40.227Z,100993.53
2023-02-17T08:52:07.424Z,100987.38
2023-02-17T08:54:34.458Z,100995.28
2023-02-17T08:57:01.392Z,100982.94
2023-02-17T08:59:28.418Z,100997.72
2023-02-17T09:01:55.777Z,100982.59
2023-02-17T09:04:22.778Z,100972.13
2023-02-17T09:06:53.371Z,100960.94
2023-02-17T09:09:23.073Z,100941.28
2023-02-17T09:11:50.220Z,100951.75
2023-02-17T09:14:17.400Z,100940.47
2023-02-17T09:16:44.396Z,100941.50
2023-02-17T09:19:11.471Z,100938.03
2023-02-17T09:21:38.503Z,100932.09
2023-02-17T09:24:06.029Z,100927.31
2023-02-17T09:26:34.968Z,100915.56
2023-02-17T09:29:03.738Z,100912.88
2023-02-17T09:31:32.008Z,100913.94
2023-02-17T09:33:59.384Z,100903.81
2023-02-17T09:36:34.148Z,100904.38
2023-02-17T09:39:01.796Z,100896.13
2023-02-17T09:41:47.939Z,100892.63
2023-02-17T09:44:22.294Z,100889.94
2023-02-17T09:47:05.816Z,100894.25
2023-02-17T09:49:56.944Z,100885.66
2023-02-17T09:52:44.965Z,100873.78
2023-02-17T09:55:35.069Z,100877.28
2023-02-17T09:58:10.621Z,100874.13
2023-02-17T10:00:50.418Z,100867.25
2023-02-17T10:03:48.494Z,100859.56
2023-02-17T10:06:29.404Z,100862.59
2023-02-17T10:09:24.340Z,100856.88
2023-02-17T10:12:04.248Z,100865.75
2023-02-17T10:14:45.382Z,100854.22
2023-02-17T10:17:41.006Z,100833.13
2023-02-17T10:20:28.927Z,100847.91
2023-02-17T10:23:04.998Z,100843.25
2023-02-17T10:26:42.578Z,100841.50
2023-02-17T10:29:52.742Z,100811.47
2023-02-17T10:32:30.352Z,100812.88
2023-02-17T10:35:23.319Z,100805.88
2023-02-17T10:38:03.834Z,100814.25
2023-02-17T10:40:31.588Z,100803.22
2023-02-17T10:43:07.282Z,100785.63
2023-02-17T10:45:44.958Z,100782.13
2023-02-17T10:48:32.563Z,100780.03
2023-02-17T10:51:01.391Z,100784.91
2023-02-17T10:53:39.451Z,100792.00
2023-02-17T10:56:34.547Z,100758.72
2023-02-17T10:59:06.361Z,100752.63
2023-02-17T11:01:34.483Z,100748.66
2023-02-17T11:04:08.202Z,100760.53
2023-02-17T11:06:49.628Z,100759.00
2023-02-17T11:09:31.995Z,100738.13
2023-02-17T11:12:25.066Z,100739.28
2023-02-17T11:14:55.489Z,100716.81
2023-02-17T11:17:30.472Z,100701.94
2023-02-17T11:20:06.156Z,100693.66
2023-02-17T11:22:45.898Z,100700.16
2023-02-17T11:25:32.189Z,100689.53
2023-02-17T11:28:02.849Z,100675.09
2023-02-17T11:30:32.950Z,100673.53
2023-02-17T11:33:14.216Z,100665.63
2023-02-17T11:35:45.999Z,100670.00
2023-02-17T11:38:18.921Z,100670.31
2023-02-17T11:41:02.339Z,100663.19
2023-02-17T11:43:32.879Z,100659.53
2023-02-17T11:46:16.929Z,100647.75
2023-02-17T11:48:57.121Z,100629.81
2023-02-17T11:51:48.893Z,100636.59
2023-02-17T11:54:31.903Z,100616.53
2023-02-17T11:57:34.998Z,100615.78
2023-02-17T12:00:19.945Z,100600.34
2023-02-17T12:03:36.442Z,100591.78
2023-02-17T12:06:21.654Z,100581.94
2023-02-17T12:09:08.092Z,100588.41
2023-02-17T12:11:48.904Z,100570.75
2023-02-17T12:14:43.318Z,100567.34
2023-02-17T12:18:04.747Z,100570.38
2023-02-17T12:20:45.714Z,100559.97
2023-02-17T12:23:46.254Z,100563.84
2023-02-17T12:26:38.374Z,100553.72
2023-02-17T12:29:25.812Z,100543.59
2023-02-17T12:32:12.607Z,100543.13
2023-02-17T12:34:57.111Z,100535.63
2023-02-17T12:37:34.632Z,100520.38
2023-02-17T12:40:16.647Z,100518.84
2023-02-17T12:43:01.578Z,100544.69
2023-02-17T12:45:46.655Z,100519.19
2023-02-17T12:48:24.726Z,100506.97
2023-02-17T12:51:02.437Z,100500.56
2023-02-17T12:53:51.690Z,100518.94
2023-02-17T12:56:33.549Z,100507.44
2023-02-17T12:59:17.225Z,100493.78
2023-02-17T13:01:54.726Z,100494.34
2023-02-17T13:04:25.172Z,100516.19
2023-02-17T13:07:02.493Z,100505.44
2023-02-17T13:09:41.091Z,100489.34
2023-02-17T13:12:23.252Z,100491.00
2023-02-17T13:14:59.252Z,100509.84
2023-02-17T13:17:40.748Z,100489.41
2023-02-17T13:20:10.605Z,100484.59
2023-02-17T13:22:43.847Z,100479.50
2023-02-17T13:25:37.608Z,100494.31
2023-02-17T13:28:19.862Z,100501.59
2023-02-17T13:30:48.698Z,100479.28
2023-02-17T13:33:21.511Z,100473.09
2023-02-17T13:35:49.065Z,100455.09
2023-02-17T13:38:31.812Z,100462.41
2023-02-17T13:41:06.350Z,100456.81
2023-02-17T13:43:42.486Z,100449.00
2023-02-17T13:46:26.985Z,100449.03
2023-02-17T13:49:06.480Z,100448.75
2023-02-17T13:51:34.219Z,100431.53
2023-02-17T13:54:09.055Z,100436.38
2023-02-17T13:56:36.150Z,100431.53
2023-02-17T13:59:08.440Z,100431.81
2023-02-17T14:01:39.564Z,100423.75
2023-02-17T14:04:27.577Z,100424.56
2023-02-17T14:06:59.339Z,100436.41
2023-02-17T14:09:33.260Z,100445.28
2023-02-17T14:12:03.460Z,100447.72
2023-02-17T14:14:38.248Z,100456.59
2023-02-17T14:17:32.642Z,100459.31
2023-02-17T14:20:00.812Z,100453.66
2023-02-17T14:22:35.227Z,100448.25
2023-02-17T14:25:14.179Z,100459.84
2023-02-17T14:27:47.527Z,100446.09
2023-02-17T14:30:34.163Z,100449.59
2023-02-17T14:33:07.517Z,100462.53
2023-02-17T14:35:35.578Z,100474.38
2023-02-17T14:38:20.960Z,100474.13
2023-02-17T14:40:48.722Z,100451.75
2023-02-17T14:43:15.982Z,100474.66
2023-02-17T14:45:43.031Z,100467.09
2023-02-17T14:48:10.011Z,100477.63
2023-02-17T14:50:42.251Z,100465.22
2023-02-17T14:53:17.192Z,100488.69
2023-02-17T14:55:54.118Z,100483.28
2023-02-17T14:58:23.841Z,100469.53
2023-02-17T15:00:51.626Z,100464.97
2023-02-17T15:03:18.799Z,100500.50
2023-02-17T15:05:46.254Z,100477.59
2023-02-17T15:08:17.695Z,100474.06
2023-02-17T15:10:45.447Z,100478.91
2023-02-17T15:13:21.658Z,100484.25
2023-02-17T15:15:49.585Z,100486.34
2023-02-17T15:18:19.413Z,100483.59
2023-02-17T15:20:50.220Z,100475.50
2023-02-17T15:23:22.873Z,100462.56
2023-02-17T15:25:50.127Z,100479.19
2023-02-17T15:28:20.069Z,100481.84
2023-02-17T15:30:52.226Z,100489.94
2023-02-17T15:33:21.778Z,100483.16
2023-02-17T15:35:53.502Z,100483.94
2023-02-17T15:38:20.927Z,100462.72
2023-02-17T15:40:48.020Z,100477.75
2023-02-17T15:43:21.424Z,100476.34
2023-02-17T15:45:48.880Z,100475.84
2023-02-17T15:48:27.310Z,100473.41
2023-02-17T15:50:54.466Z,100445.16
2023-02-17T15:53:21.809Z,100468.28
2023-02-17T15:55:49.119Z,100456.44
2023-02-17T15:58:19.549Z,100444.09
2023-02-17T16:00:47.047Z,100470.41
2023-02-17T16:03:15.016Z,100460.47
2023-02-17T16:05:43.418Z,100455.38
2023-02-17T16:08:10.395Z,100448.38
2023-02-17T16:10:39.473Z,100444.38
2023-02-17T16:13:06.651Z,100446.78
2023-02-17T16:15:34.000Z,100439.81
2023-02-17T16:18:00.950Z,100437.94
2023-02-17T16:20:34.732Z,100444.66
2023-02-17T16:23:02.678Z,100465.59
2023-02-17T16:25:30.207Z,100452.16
2023-02-17T16:27:57.361Z,100452.75
2023-02-17T16:30:33.234Z,100451.09
2023-02-17T16:33:00.828Z,100479.63
2023-02-17T16:35:31.497Z,100459.72
2023-02-17T16:38:03.906Z,100486.34
2023-02-17T16:40:35.371Z,100486.06
2023-02-17T16:43:03.698Z,100470.22
2023-02-17T16:45:32.788Z,100471.81
2023-02-17T16:48:01.575Z,100472.06
2023-02-17T16:50:32.787Z,100485.81
2023-02-17T16:53:04.086Z,100461.91
2023-02-17T16:55:34.704Z,100480.75
2023-02-17T16:58:02.967Z,100484.50
2023-02-17T17:00:33.064Z,100466.22
2023-02-17T17:03:00.095Z,100459.47
2023-02-17T17:05:29.577Z,100465.44
2023-02-17T17:07:57.076Z,100476.19
2023-02-17T17:10:31.031Z,100457.66
2023-02-17T17:12:58.671Z,100470.56
2023-02-17T17:15:25.732Z,100456.31
2023-02-17T17:18:00.457Z,100448.00
2023-02-17T17:20:34.138Z,100467.91
2023-02-17T17:23:14.810Z,100466.28
2023-02-17T17:25:46.360Z,100481.34
2023-02-17T17:28:18.810Z,100499.63
2023-02-17T17:30:47.850Z,100466.28
2023-02-17T17:33:16.182Z,100468.16
2023-02-17T17:35:43.525Z,100480.53
2023-02-17T17:38:15.498Z,100476.22
2023-02-17T17:40:53.000Z,100474.34
2023-02-17T17:43:22.002Z,100488.88
2023-02-17T17:45:50.321Z,100492.13
2023-02-17T17:48:18.680Z,100475.97
2023-02-17T17:50:46.143Z,100474.88
2023-02-17T17:53:13.326Z,100480.84
2023-02-17T17:55:40.340Z,100487.81
2023-02-17T17:58:07.474Z,100508.28
2023-02-17T18:00:34.364Z,100513.13
2023-02-17T18:03:01.368Z,100538.69
2023-02-17T18:05:28.393Z,100512.06
2023-02-17T18:07:56.300Z,100522.53
2023-02-17T18:10:23.366Z,100531.63
2023-02-17T18:12:50.542Z,100538.56
2023-02-17T18:15:18.649Z,100546.63
2023-02-17T18:17:47.302Z,100533.66
2023-02-17T18:20:14.731Z,100572.78
2023-02-17T18:22:42.005Z,100540.66
2023-02-17T18:25:09.990Z,100552.34
2023-02-17T18:27:42.823Z,100561.81
2023-02-17T18:30:18.656Z,100557.97
2023-02-17T18:32:46.237Z,100549.22
2023-02-17T18:35:14.009Z,100597.41
2023-02-17T18:37:41.336Z,100592.47
2023-02-17T18:40:14.799Z,100612.75
2023-02-17T18:42:45.420Z,100623.41
2023-02-17T18:45:13.734Z,100632.72
2023-02-17T18:47:40.775Z,100635.56
2023-02-17T18:50:10.261Z,100637.13
2023-02-17T18:52:39.339Z,100616.16
2023-02-17T18:55:07.559Z,100619.59
2023-02-17T18:57:34.719Z,100635.31
2023-02-17T19:00:02.479Z,100611.41
2023-02-17T19:02:29.528Z,100646.03
2023-02-17T19:04:56.854Z,100638.41
2023-02-17T19:07:23.823Z,100652.13
2023-02-17T19:09:54.510Z,100666.75
2023-02-17T19:12:21.652Z,100659.78
2023-02-17T19:14:53.265Z,100663.28
2023-02-17T19:17:20.420Z,100674.81
2023-02-17T19:19:47.667Z,100658.16
2023-02-17T19:22:14.774Z,100647.25
2023-02-17T19:24:42.672Z,100675.78
2023-02-17T19:27:10.491Z,100699.56
2023-02-17T19:29:37.612Z,100695.16
2023-02-17T19:32:05.473Z,100681.53
2023-02-17T19:34:32.651Z,100720.34
2023-02-17T19:36:59.755Z,100698.34
2023-02-17T19:39:26.689Z,100720.59
2023-02-17T19:41:53.785Z,100715.47
2023-02-17T19:44:20.753Z,100714.34
2023-02-17T19:46:47.803Z,100725.50
2023-02-17T19:49:15.048Z,100738.34
2023-02-17T19:51:42.311Z,100738.00
2023-02-17T19:54:09.362Z,100749.22
2023-02-17T19:56:39.080Z,100746.78
2023-02-17T19:59:06.207Z,100738.97
2023-02-17T20:01:34.534Z,100742.13
2023-02-17T20:04:04.940Z,100754.06
2023-02-17T20:06:41.814Z,100760.47
2023-02-17T20:09:14.858Z,100766.06
2023-02-17T20:11:43.612Z,100771.34
2023-02-17T20:14:11.180Z,100757.38
2023-02-17T20:16:39.064Z,100749.97
2023-02-17T20:19:07.430Z,100756.13
2023-02-17T20:21:38.405Z,100776.97
2023-02-17T20:24:05.808Z,100783.88
2023-02-17T20:26:39.165Z,100786.53
2023-02-17T20:29:06.329Z,100785.63
2023-02-17T20:31:36.065Z,100797.16
2023-02-17T20:34:05.236Z,100771.31
2023-02-17T20:36:32.651Z,100785.75
2023-02-17T20:39:00.423Z,100816.25
2023-02-17T20:41:27.521Z,100788.81
2023-02-17T20:43:54.808Z,100783.69
2023-02-17T20:46:27.453Z,100784.75
2023-02-17T20:48:55.502Z,100782.78
2023-02-17T20:51:23.480Z,100802.34
2023-02-17T20:53:51.106Z,100801.19
2023-02-17T20:56:22.304Z,100803.84
2023-02-17T20:58:50.771Z,100815.84
2023-02-17T21:01:19.876Z,100856.47
2023-02-17T21:03:48.161Z,100815.94
2023-02-17T21:06:25.462Z,100837.00
2023-02-17T21:09:07.097Z,100839.09
2023-02-17T21:11:34.610Z,100844.56
2023-02-17T21:14:01.708Z,100826.06
2023-02-17T21:16:31.167Z,100843.75
2023-02-17T21:19:00.133Z,100848.28
2023-02-17T21:21:28.314Z,100846.31
2023-02-17T21:23:56.860Z,100837.72
2023-02-17T21:26:42.532Z,100835.28
2023-02-17T21:29:09.467Z,100821.78
2023-02-17T21:31:36.937Z,100854.94
2023-02-17T21:34:04.483Z,100845.03
2023-02-17T21:36:31.817Z,100859.34
2023-02-17T21:38:59.204Z,100849.66
2023-02-17T21:41:28.888Z,100852.94
2023-02-17T21:44:14.668Z,100842.91
2023-02-17T21:46:43.257Z,100893.16
2023-02-17T21:49:11.550Z,100861.53
2023-02-17T21:51:40.392Z,100889.53
2023-02-17T21:54:09.619Z,100833.97
2023-02-17T21:56:37.344Z,100866.97
2023-02-17T21:59:05.382Z,100873.84
2023-02-17T22:01:32.520Z,100886.75
2023-02-17T22:03:59.562Z,100877.56
2023-02-17T22:06:39.186Z,100873.25
2023-02-17T22:09:08.520Z,100876.16
2023-02-17T22:11:41.242Z,100897.09
2023-02-17T22:14:20.157Z,100894.19
2023-02-17T22:16:48.731Z,100896.84
2023-02-17T22:19:23.095Z,100897.22
2023-02-17T22:21:51.354Z,100910.94
2023-02-17T22:24:20.799Z,100907.69
2023-02-17T22:26:49.365Z,100905.81
2023-02-17T22:29:16.221Z,100935.34
2023-02-17T22:31:43.360Z,100928.72
2023-02-17T22:34:36.489Z,100915.38
2023-02-17T22:37:03.740Z,100922.81
2023-02-17T22:39:30.685Z,100920.91
2023-02-17T22:41:57.666Z,100924.63
2023-02-17T22:44:24.492Z,100944.53
2023-02-17T22:46:51.613Z,100948.00
2023-02-17T22:49:18.613Z,100951.50
2023-02-17T22:51:45.524Z,100941.72
2023-02-17T22:54:12.503Z,100955.31
2023-02-17T22:56:39.458Z,100928.00
2023-02-17T22:59:06.554Z,100946.25
2023-02-17T23:01:36.271Z,100968.34
2023-02-17T23:04:04.590Z,100978.91
2023-02-17T23:06:35.903Z,100970.28
2023-02-17T23:09:05.168Z,100956.44
2023-02-17T23:11:54.542Z,100960.63
2023-02-17T23:14:30.499Z,100952.72
2023-02-17T23:17:05.013Z,100950.72
2023-02-17T23:19:32.955Z,100957.94
2023-02-17T23:22:05.522Z,100948.06
2023-02-17T23:24:32.974Z,100976.50
2023-02-17T23:27:01.835Z,100969.72
2023-02-17T23:29:30.605Z,100967.72
2023-02-17T23:31:58.263Z,100968.31
2023-02-17T23:34:25.240Z,100973.53
2023-02-17T23:36:53.244Z,100969.31
2023-02-17T23:39:20.312Z,100976.97
2023-02-17T23:41:47.140Z,100978.00
2023-02-17T23:44:15.901Z,100987.06
2023-02-17T23:46:44.964Z,101014.34
2023-02-17T23:49:17.125Z,100992.47
2023-02-17T23:51:46.087Z,100989.81
2023-02-17T23:54:13.240Z,100993.88
2023-02-17T23:56:40.354Z,101008.50
2023-02-17T23:59:07.462Z,101002.72
